Ebenezer — 9N220 — position and weather

sailwx.info

Track history (hours):
 
Tides and Currents Weather Stations Pressure Air Temp Water Temp Dewpoint Dewpoint Depression Visibility Wind Speed Wind Dir Waves Ship Positions

Ebenezer

Last reported at 2018-Feb-17 15:52 UTC. Time now 2018-Feb-18 03:25 UTC.
Position N 05°38' E 000°01'.

Length 20 m.

Type: Ship. MMSI: 752981000.

Date/timePositionNaut miles runAvg speedWind from/ knotsBaromVisibWave heightAir tempDewpointWater temp
2018-Feb-17 15:52N 05°38' E 000°01'0 0.0
2018-Feb-17 15:28N 05°38' E 000°01'0 0.0
2018-Feb-17 14:58N 05°38' E 000°01'1 2.8
2018-Feb-17 14:30N 05°37' E 000°02'3 6.8
2018-Feb-17 14:00N 05°35' E 000°04'1 2.4
2018-Feb-17 13:30N 05°33' E 000°04'3 7.1
2018-Feb-17 13:00N 05°34' E 000°01'0 0.4
2018-Feb-17 12:30N 05°34' E 000°00'0 0.0
2018-Feb-17 12:00N 05°34' E 000°00'1 1.2
2018-Feb-17 11:30N 05°34' E 000°01'3 5.6
2018-Feb-17 10:58N 05°33' E 000°04'2 3.3
2018-Feb-17 10:30N 05°35' E 000°03'4 7.2
2018-Feb-17 10:00N 05°38' E 000°01'1 0.4
2018-Feb-17 08:14N 05°38' E 000°01'0 0.0
2018-Feb-16 17:21N 05°38' E 000°01'0 0.4
2018-Feb-16 16:58N 05°38' E 000°01'0 0.0
2018-Feb-16 16:25N 05°38' E 000°01'0 0.0
2018-Feb-16 15:59N 05°38' E 000°01'0 0.0
2018-Feb-16 15:29N 05°38' E 000°01'2 4.1
2018-Feb-16 15:00N 05°39' E 000°03'2 3.7
2018-Feb-16 14:30N 05°39' E 000°05'0 0.8
2018-Feb-16 14:00N 05°39' E 000°04'0 0.2
2018-Feb-16 13:29N 05°39' E 000°04'0 0.7
2018-Feb-16 13:00N 05°39' E 000°04'3 0.2
2018-Feb-15 15:52N 05°38' E 000°01'0 0.0
2018-Feb-15 15:23N 05°38' E 000°01'4 7.2
2018-Feb-15 14:51N 05°35' E 000°01'0 0.2
2018-Feb-15 14:14N 05°34' E 000°01'1 3.8
2018-Feb-15 13:57N 05°33' E 000°00'0 0.0
2018-Feb-15 13:29N 05°33' E 000°00'0 0.0
2018-Feb-15 12:58N 05°33' E 000°00'0 0.0
2018-Feb-15 12:26N 05°33' E 000°00'1 3.3
2018-Feb-15 11:59N 05°35' E 000°01'3 6.4
2018-Feb-15 11:29N 05°38' E 000°01'0 0.0
2018-Feb-13 07:32N 05°38' E 000°01'0 6.8
2018-Feb-13 07:30N 05°38' E 000°01'3 5.3
2018-Feb-13 06:55N 05°39' E 000°04'3 6.9
2018-Feb-13 06:30N 05°38' E 000°01'0 0.0
2018-Feb-11 15:47N 05°38' E 000°01'2 6.8
2018-Feb-11 15:30N 05°37' E 000°02'1 1.5
2018-Feb-11 15:00N 05°36' E 000°02'3 4.4
2018-Feb-11 14:23N 05°38' E 000°01'0 0.0
2018-Feb-10 16:25N 05°38' E 000°01'3 6.2
2018-Feb-10 16:00N 05°38' E 000°04'1 1.4
2018-Feb-10 15:22N 05°39' E 000°04'0 0.0
2018-Feb-10 14:58N 05°39' E 000°04'0 0.4
2018-Feb-10 14:30N 05°39' E 000°04'3 5.7
2018-Feb-10 14:00N 05°38' E 000°02'1 0.1
2018-Feb-10 08:36N 05°38' E 000°01'0 0.4
2018-Feb-10 08:19N 05°38' E 000°01'2 6.5
2018-Feb-10 08:00N 05°36' E 000°01'3 5.1
2018-Feb-10 07:28N 05°33' E 000°01'2 5.3
2018-Feb-10 07:00N 05°36' E 000°01'  
Track history (hours):
 
Tides and Currents Weather Stations Pressure Air Temp Water Temp Dewpoint Dewpoint Depression Visibility Wind Speed Wind Dir Waves Ship Positions

Ebenezer

Last reported at 2018-Feb-17 15:52 UTC. Time now 2018-Feb-18 03:25 UTC.
Position N 05°38' E 000°01'.

Length 20 m.

Type: Ship. MMSI: 752981000.

Date/timePositionNaut miles runAvg speedWind from/ knotsBaromVisibWave heightAir tempDewpointWater temp
2018-Feb-17 15:52N 05°38' E 000°01'0 0.0
2018-Feb-17 15:28N 05°38' E 000°01'0 0.0
2018-Feb-17 14:58N 05°38' E 000°01'1 2.8
2018-Feb-17 14:30N 05°37' E 000°02'3 6.8
2018-Feb-17 14:00N 05°35' E 000°04'1 2.4
2018-Feb-17 13:30N 05°33' E 000°04'3 7.1
2018-Feb-17 13:00N 05°34' E 000°01'0 0.4
2018-Feb-17 12:30N 05°34' E 000°00'0 0.0
2018-Feb-17 12:00N 05°34' E 000°00'1 1.2
2018-Feb-17 11:30N 05°34' E 000°01'3 5.6
2018-Feb-17 10:58N 05°33' E 000°04'2 3.3
2018-Feb-17 10:30N 05°35' E 000°03'4 7.2
2018-Feb-17 10:00N 05°38' E 000°01'1 0.4
2018-Feb-17 08:14N 05°38' E 000°01'0 0.0
2018-Feb-16 17:21N 05°38' E 000°01'0 0.4
2018-Feb-16 16:58N 05°38' E 000°01'0 0.0
2018-Feb-16 16:25N 05°38' E 000°01'0 0.0
2018-Feb-16 15:59N 05°38' E 000°01'0 0.0
2018-Feb-16 15:29N 05°38' E 000°01'2 4.1
2018-Feb-16 15:00N 05°39' E 000°03'2 3.7
2018-Feb-16 14:30N 05°39' E 000°05'0 0.8
2018-Feb-16 14:00N 05°39' E 000°04'0 0.2
2018-Feb-16 13:29N 05°39' E 000°04'0 0.7
2018-Feb-16 13:00N 05°39' E 000°04'3 0.2
2018-Feb-15 15:52N 05°38' E 000°01'0 0.0
2018-Feb-15 15:23N 05°38' E 000°01'4 7.2
2018-Feb-15 14:51N 05°35' E 000°01'0 0.2
2018-Feb-15 14:14N 05°34' E 000°01'1 3.8
2018-Feb-15 13:57N 05°33' E 000°00'0 0.0
2018-Feb-15 13:29N 05°33' E 000°00'0 0.0
2018-Feb-15 12:58N 05°33' E 000°00'0 0.0
2018-Feb-15 12:26N 05°33' E 000°00'1 3.3
2018-Feb-15 11:59N 05°35' E 000°01'3 6.4
2018-Feb-15 11:29N 05°38' E 000°01'0 0.0
2018-Feb-13 07:32N 05°38' E 000°01'0 6.8
2018-Feb-13 07:30N 05°38' E 000°01'3 5.3
2018-Feb-13 06:55N 05°39' E 000°04'3 6.9
2018-Feb-13 06:30N 05°38' E 000°01'0 0.0
2018-Feb-11 15:47N 05°38' E 000°01'2 6.8
2018-Feb-11 15:30N 05°37' E 000°02'1 1.5
2018-Feb-11 15:00N 05°36' E 000°02'3 4.4
2018-Feb-11 14:23N 05°38' E 000°01'0 0.0
2018-Feb-10 16:25N 05°38' E 000°01'3 6.2
2018-Feb-10 16:00N 05°38' E 000°04'1 1.4
2018-Feb-10 15:22N 05°39' E 000°04'0 0.0
2018-Feb-10 14:58N 05°39' E 000°04'0 0.4
2018-Feb-10 14:30N 05°39' E 000°04'3 5.7
2018-Feb-10 14:00N 05°38' E 000°02'1 0.1
2018-Feb-10 08:36N 05°38' E 000°01'0 0.4
2018-Feb-10 08:19N 05°38' E 000°01'2 6.5
2018-Feb-10 08:00N 05°36' E 000°01'3 5.1
2018-Feb-10 07:28N 05°33' E 000°01'2 5.3
2018-Feb-10 07:00N 05°36' E 000°01'  

Dump ship's entire track history